Atlantic - Newfoundland: Past 24 Hour Conditions

 

Winterland

05:30 AM NDT 18 April 2014
This table is a summary of hourly weather conditions for the past 24 hours.
Date / Time
(NDT)
Wind(knots) Conditions Visibility(km) Pressure(kPa) Air tempC) Relative humidity(%) Dew pointC) Wind Chill
18 April 2014
5:30 calm Cloudy 15 103.9 -4 75 -8 *
4:30 NE 4 Mainly Clear 15 103.9 -5 71 -9 -8
3:30 NE 5 Clear 15 103.9 -5 74 -9 -9
2:30 NE 5 Clear 15 103.9 -4 72 -9 -8
1:30 NNE 8 Clear 15 103.9 -3 66 -9 -9
0:30 NNE 7 Clear 15 103.9 -3 63 -9 -7
17 April 2014
23:30 NNE 7 Clear 15 103.9 -2 60 -8 -6
22:30 N 7 Clear 15 103.9 -1 60 -8 -5
21:30 NNW 10 Clear 15 103.9 -1 57 -8 -6
20:30 NNW 7 Clear 15 103.8 0 59 -7 -4
19:30 WNW 9 Sunny 15 103.7 1 58 -6 *
18:30 W 13 gust 18 Sunny 15 103.7 2 54 -6 *
17:30 WNW 15 Sunny 15 103.7 3 48 -7 *
16:30 WNW 14 gust 20 Sunny 15 103.7 3 48 -7 *
15:30 NW 14 gust 20 Sunny 15 103.6 4 47 -7 *
14:30 WNW 17 gust 22 Sunny 15 103.6 3 49 -7 *
13:30 WNW 20 Sunny 15 103.6 3 51 -7 *
12:30 WNW 17 Light Snow 15 103.6 3 56 -5 *
11:30 WNW 13 gust 18 Sunny 15 103.5 2 57 -6 *
10:30 WNW 11 Sunny 15 103.5 2 58 -6 *
9:30 NW 10 gust 15 Sunny 15 103.4 0 63 -6 -5
8:30 NNW 15 Sunny 15 103.3 -1 65 -6 -7
7:30 NW 9 Mainly Sunny 15 103.2 -1 73 -5 -6
6:30 NW 10 Sunny 15 103.1 -2 76 -5 -7
5:30 NW 8 Clear 15 102.9 -2 78 -5 -6
 
Map of Atlantic - Newfoundland marine weather areas Southwestern Grand Banks - 44138 Banquereau - 44139 Tail of the Bank - 44140 Nickerson Bank - 44251 Northeast Burgeo Bank - 44255 Blanc-Sablon Airport Cap Whittle Chevery Natashquan Airport Heath Point Miscou Island Grand Étang Ingonish Beach North Mountain St.Paul Island J.A. Douglas McCurdy Sydney Airport Charlottetown Airport East Point North Cape Argentia Bonavista Burgeo Cape Race Corner Brook Daniel's Harbour Englee Ferolle Point La Scie Port aux Basques Rocky Harbour Sagona Island St. Anthony Airport St. John's Int'l Airport St. Lawrence Stephenville Airport Twillingate Winterland Wreckhouse Cartwright Airport Mary's Harbour Grates Cove Pool's Island Marticot Island Long Pond Îles de la Madeleine Airport
Legend: buoyBuoy land stationLand Station